Impacts TAF Board INFO
FOR SITUATIONAL AWARENESS. NOT TO BE USED FOR FLIGHT PLANNING PURPOSES.
IDs:

KBWI - Baltimore-Washington, MD, US

Issued at 2119 UTC 21 Feb 2018
Updated at 2307 UTC 21 Feb 2018
Potential Impact None Slight Moderate High
Time<<22/12Z 22/13Z 22/14Z 22/15Z 22/16Z 22/17Z 22/18Z 22/19Z 22/20Z 22/21Z 22/22Z 22/23Z 23/00Z>>
Type PRVL PRVL PRVL PRVL PRVL PRVL PRVL PRVL PRVL PRVL PRVL PRVL
VIS 6 6 6 1.5 1.5 1.5 1.5 1.5 1.5 1.5 1.5 1.5
CIG 40 40 40 8 8 8 8 8 8 8 8 8
Cover OVC OVC OVC OVC OVC OVC OVC OVC OVC OVC OVC OVC
FltCat VFR VFR VFR IFR IFR IFR IFR IFR IFR IFR IFR IFR
WX -RA -DZ BR -RA -DZ BR -RA -DZ BR -RA -DZ BR -RA -DZ BR -RA -DZ BR -RA -DZ BR -RA -DZ BR -RA -DZ BR -RA -DZ BR -RA -DZ BR -RA -DZ BR
WDir 40 40 40 40 40 40 40 40 40 40 40 40
WSpd 7 7 7 8 8 8 8 8 8 8 8 8
WGst -- -- -- -- -- -- -- -- -- -- -- --

Raw TAF
KBWI 212119Z 2121/2224 23014G20KT P6SM FEW035 SCT110
  FM220000 23007KT P6SM SCT025 BKN150
  FM220200 27006KT P6SM SCT025 OVC150
  FM220600 01007KT 6SM -DZ BR SCT025 OVC045
  FM221200 04007KT 6SM -RADZ BR SCT025 OVC040
  FM221500 04008KT 1 1/2SM -RADZ BR BKN008 OVC030


METAR Board
Radar Display
Forecast Discussion

FOR SITUATIONAL AWARENESS. NOT TO BE USED FOR FLIGHT PLANNING PURPOSES.